Woodville, New York
Current Conditions -  °F | °C
As of 1:56 AM on Sunday 26 Oct 2014 (Local Time) from KART Reporting Station
Overcast Overcast  
Wind Chill: 12°   Ceiling: 4500
Heat Index: 12°   Visibility: 10mi
Dew Point:   Wind: 15mph
Humidity: 55%   Direction: 270°W
Pressure: 29.51"   Gusts: NA
Location:  43.8534°N, 76.251°W
Report Text: KART 260556Z AUTO 27013KT 10SM OVC045 12/03 A2951 RMK AO2 SLP991 T01170028 10139 20106 58007
Loading
Personal Weather Stations






























Interactive Weather Map
Tropical Storm Tracking
New forecast layout! Learn more

10-Day Weather Forecast

Advertisements
Track Severe Weather on mobile